Time;durP1;ratioP1;P1;durP2;ratioP2;P2;SDS_P1;SDS_P2;PMS_P1;PMS_P2;Temp;Humidity;BMP_temperature;BMP_pressure;BME280_temperature;BME280_humidity;BME280_pressure;Samples;Min_cycle;Max_cycle;Signal;HPM_P1;HPM_P2
2022/05/24 00:00:42;;;;;;;11.50;6.93;;;12.50;99.90;;;;;;5271466;28;20028;-89
2022/05/24 00:03:13;;;;;;;12.55;7.75;;;12.70;99.90;;;;;;5272616;28;20020;-79
2022/05/24 00:05:44;;;;;;;9.88;7.50;;;12.80;99.90;;;;;;5272750;28;20379;-78
2022/05/24 00:08:15;;;;;;;14.90;7.53;;;12.60;99.90;;;;;;5272589;28;20078;-79
2022/05/24 00:10:48;;;;;;;13.30;7.05;;;12.50;99.90;;;;;;5272514;28;20032;-89
2022/05/24 00:13:19;;;;;;;12.70;8.18;;;12.40;99.90;;;;;;5272681;28;20066;-88
2022/05/24 00:15:49;;;;;;;12.05;6.78;;;12.40;99.90;;;;;;5272284;28;20066;-90
2022/05/24 00:18:26;;;;;;;10.73;6.45;;;12.30;99.90;;;;;;5272392;28;20044;-89
2022/05/24 00:21:00;;;;;;;14.85;7.88;;;12.20;99.90;;;;;;5272598;28;20058;-78
2022/05/24 00:23:31;;;;;;;16.48;8.20;;;12.00;99.90;;;;;;5272303;28;20047;-89
2022/05/24 00:26:06;;;;;;;9.80;6.40;;;12.00;99.90;;;;;;5271853;28;20391;-79
2022/05/24 00:28:37;;;;;;;12.10;6.60;;;12.10;99.90;;;;;;5272231;28;20032;-88
2022/05/24 00:31:08;;;;;;;7.93;5.45;;;12.10;99.90;;;;;;5270761;28;20515;-88
2022/05/24 00:33:39;;;;;;;9.80;5.82;;;12.10;99.90;;;;;;5270765;28;20055;-89
2022/05/24 00:36:10;;;;;;;9.70;5.88;;;12.00;99.90;;;;;;5272001;28;20464;-78
2022/05/24 00:38:41;;;;;;;12.20;6.75;;;12.00;99.90;;;;;;5271996;28;20480;-79
2022/05/24 00:41:27;;;;;;;9.43;6.22;;;11.90;99.90;;;;;;5271990;28;20086;-78
2022/05/24 00:44:31;;;;;;;10.85;5.38;;;12.00;99.90;;;;;;5272034;28;20020;-79
2022/05/24 00:47:13;;;;;;;10.15;6.07;;;12.20;99.90;;;;;;5287449;28;20024;-78
2022/05/24 00:49:51;;;;;;;9.23;6.20;;;12.00;99.90;;;;;;5271725;28;20043;-78
2022/05/24 00:52:45;;;;;;;9.90;5.78;;;11.70;99.90;;;;;;5271511;28;20051;-80
2022/05/24 00:55:22;;;;;;;11.00;5.88;;;11.90;99.90;;;;;;5271306;28;20055;-88
2022/05/24 00:58:16;;;;;;;11.88;5.80;;;11.40;99.90;;;;;;5270328;28;20036;-78
2022/05/24 01:00:46;;;;;;;8.18;5.32;;;11.30;99.90;;;;;;5271599;28;20032;-88
2022/05/24 01:03:17;;;;;;;10.00;5.63;;;11.50;99.90;;;;;;5271724;28;20377;-79
2022/05/24 01:05:48;;;;;;;12.52;5.88;;;11.70;99.90;;;;;;5271994;28;20047;-89
2022/05/24 01:08:19;;;;;;;9.38;5.75;;;11.40;99.90;;;;;;5271394;28;20020;-89
2022/05/24 01:10:53;;;;;;;7.35;4.85;;;11.50;99.90;;;;;;5271725;28;20070;-88
2022/05/24 01:13:26;;;;;;;10.20;4.97;;;11.40;99.90;;;;;;5271226;28;20487;-78
2022/05/24 01:15:57;;;;;;;10.18;5.22;;;11.70;99.90;;;;;;5271221;28;20028;-78
2022/05/24 01:18:28;;;;;;;7.53;4.45;;;11.80;99.90;;;;;;5269978;28;20024;-89
2022/05/24 01:21:04;;;;;;;7.07;4.30;;;11.60;99.90;;;;;;5271154;28;20028;-88
2022/05/24 01:23:53;;;;;;;7.80;3.75;;;11.70;99.90;;;;;;5286903;28;20043;-78
2022/05/24 01:26:36;;;;;;;10.02;3.80;;;11.80;99.90;;;;;;5271118;28;20390;-89
2022/05/24 01:29:08;;;;;;;9.27;5.15;;;11.90;99.90;;;;;;5270862;28;20082;-79
2022/05/24 01:37:20;;;;;;;11.98;5.70;;;12.00;99.90;;;;;;5270372;28;20526;-78
2022/05/24 01:39:54;;;;;;;12.02;5.28;;;11.60;99.90;;;;;;5270812;28;20039;-78
2022/05/24 01:42:25;;;;;;;13.80;6.63;;;11.30;99.90;;;;;;5270694;28;20471;-79
2022/05/24 01:45:20;;;;;;;20.95;6.22;;;11.60;99.90;;;;;;5270681;28;20028;-88
2022/05/24 01:47:57;;;;;;;20.95;5.78;;;11.60;99.90;;;;;;5270676;28;20031;-88
2022/05/24 01:50:29;;;;;;;12.40;5.38;;;11.20;99.90;;;;;;5270614;28;20030;-84
2022/05/24 01:53:20;;;;;;;14.85;6.07;;;11.50;99.90;;;;;;5270377;28;20035;-88
2022/05/24 01:55:53;;;;;;;10.57;4.70;;;11.60;99.90;;;;;;5286298;28;20613;-88
2022/05/24 01:58:28;;;;;;;9.63;4.82;;;11.40;99.90;;;;;;5270136;28;20032;-78
2022/05/24 02:01:11;;;;;;;12.63;4.72;;;11.40;99.90;;;;;;5270495;28;20032;-88
2022/05/24 02:03:41;;;;;;;12.35;5.63;;;11.50;99.90;;;;;;5270390;28;20107;-85
2022/05/24 02:06:25;;;;;;;7.35;4.30;;;11.50;99.90;;;;;;5270450;28;20145;-79
2022/05/24 02:08:56;;;;;;;9.18;4.40;;;11.60;99.90;;;;;;5285921;28;20035;-78
2022/05/24 02:11:29;;;;;;;11.35;5.57;;;11.60;99.90;;;;;;5270130;28;20130;-78
2022/05/24 02:14:13;;;;;;;7.28;3.83;;;11.60;99.90;;;;;;5270226;28;20118;-88
2022/05/24 02:16:51;;;;;;;5.57;3.20;;;11.60;99.90;;;;;;5270265;28;20034;-78
2022/05/24 02:19:24;;;;;;;7.72;4.13;;;11.50;99.90;;;;;;5269883;28;20502;-81
2022/05/24 02:22:00;;;;;;;5.93;3.30;;;11.50;99.90;;;;;;5270414;28;20042;-89
2022/05/24 02:24:31;;;;;;;6.40;3.70;;;11.50;99.90;;;;;;5270222;28;20020;-79
2022/05/24 02:27:03;;;;;;;9.32;4.93;;;11.70;99.90;;;;;;5270211;28;20032;-83
2022/05/24 02:29:34;;;;;;;13.35;6.22;;;11.60;99.90;;;;;;5269533;28;20043;-79
2022/05/24 02:32:06;;;;;;;6.10;3.67;;;11.80;99.90;;;;;;5269985;28;20472;-88
2022/05/24 02:34:37;;;;;;;8.20;3.85;;;11.50;99.90;;;;;;5285387;28;20560;-78
2022/05/24 02:37:09;;;;;;;13.73;4.60;;;11.20;99.90;;;;;;5268507;28;20101;-85
2022/05/24 02:42:31;;;;;;;7.45;5.13;;;11.50;99.90;;;;;;5269408;28;20027;-88
2022/05/24 02:45:02;;;;;;;12.57;5.93;;;11.60;99.90;;;;;;5269390;28;20093;-83
2022/05/24 02:47:33;;;;;;;15.95;4.03;;;11.70;99.90;;;;;;5269442;28;20077;-79
2022/05/24 02:50:05;;;;;;;8.15;3.63;;;11.30;99.90;;;;;;5269580;28;20027;-88
2022/05/24 02:52:37;;;;;;;17.05;3.67;;;11.00;99.90;;;;;;5268113;28;20024;-78
2022/05/24 02:55:09;;;;;;;7.47;4.30;;;10.90;99.90;;;;;;5269471;28;20533;-78
2022/05/24 02:57:41;;;;;;;6.05;4.28;;;11.10;99.90;;;;;;5269374;28;20103;-84
2022/05/24 03:00:16;;;;;;;11.25;4.07;;;11.20;99.90;;;;;;5269387;28;20035;-79
2022/05/24 03:02:47;;;;;;;9.75;3.92;;;11.10;99.90;;;;;;5285046;28;20027;-87
2022/05/24 03:05:19;;;;;;;5.55;3.80;;;11.00;99.90;;;;;;5269282;28;20061;-78
2022/05/24 03:10:40;;;;;;;4.75;3.55;;;11.30;99.90;;;;;;5269639;28;20116;-78
2022/05/24 03:16:11;;;;;;;4.65;3.45;;;11.40;99.90;;;;;;5268981;28;20149;-88
2022/05/24 03:18:42;;;;;;;4.10;3.25;;;11.40;99.90;;;;;;5269243;28;20032;-83
2022/05/24 03:21:13;;;;;;;10.13;4.35;;;10.80;99.90;;;;;;5269027;28;20016;-86
2022/05/24 03:23:44;;;;;;;5.63;3.30;;;11.20;99.90;;;;;;5269038;28;20032;-87
2022/05/24 03:26:15;;;;;;;4.63;3.00;;;11.30;99.90;;;;;;5269074;28;20397;-78
2022/05/24 03:28:47;;;;;;;6.15;2.83;;;11.30;99.90;;;;;;5268757;28;20039;-87
2022/05/24 03:31:17;;;;;;;4.15;2.90;;;11.40;99.90;;;;;;5269114;28;20040;-87
2022/05/24 03:33:49;;;;;;;4.32;2.80;;;11.30;99.90;;;;;;5268873;28;20110;-88
2022/05/24 03:36:20;;;;;;;6.72;3.20;;;11.40;99.90;;;;;;5268902;28;20020;-88
2022/05/24 03:38:51;;;;;;;3.72;3.08;;;11.70;99.90;;;;;;5267665;28;20031;-78
2022/05/24 03:41:21;;;;;;;7.07;2.47;;;11.80;99.90;;;;;;5268990;28;20106;-86
2022/05/24 03:43:52;;;;;;;6.22;2.10;;;11.80;99.90;;;;;;5268948;28;20034;-80
2022/05/24 03:46:23;;;;;;;2.65;2.03;;;11.80;99.90;;;;;;5267546;28;20785;-88
2022/05/24 03:48:54;;;;;;;2.72;2.13;;;11.80;99.90;;;;;;5267724;28;20031;-79
2022/05/24 03:51:25;;;;;;;3.22;2.20;;;12.00;99.90;;;;;;5268869;28;20025;-79
2022/05/24 03:53:56;;;;;;;1.90;1.70;;;12.00;99.90;;;;;;5268864;28;20503;-79
2022/05/24 03:56:27;;;;;;;3.22;1.75;;;11.90;99.90;;;;;;5267481;28;20044;-78
2022/05/24 03:58:58;;;;;;;2.42;1.83;;;11.90;99.90;;;;;;5268780;28;20028;-78
2022/05/24 04:01:28;;;;;;;3.13;1.63;;;12.00;99.90;;;;;;5270645;28;20097;-89
2022/05/24 04:03:59;;;;;;;2.60;1.98;;;12.00;99.90;;;;;;5272659;28;20391;-88
2022/05/24 04:06:30;;;;;;;2.22;1.80;;;11.80;99.90;;;;;;5272739;28;20073;-79
2022/05/24 04:09:01;;;;;;;3.50;1.67;;;12.10;99.90;;;;;;5272671;28;20100;-79
2022/05/24 04:11:32;;;;;;;2.03;1.50;;;12.20;99.90;;;;;;5272841;28;20028;-82
2022/05/24 04:14:03;;;;;;;3.63;1.85;;;12.10;99.90;;;;;;5272482;28;20031;-89
2022/05/24 04:16:34;;;;;;;2.28;1.60;;;12.30;99.90;;;;;;5272734;28;20524;-89
2022/05/24 04:19:05;;;;;;;2.72;1.98;;;12.50;99.90;;;;;;5272370;28;20032;-88
2022/05/24 04:21:36;;;;;;;3.50;1.92;;;12.70;99.90;;;;;;5272343;28;20500;-89
2022/05/24 04:24:07;;;;;;;2.20;1.98;;;12.40;99.90;;;;;;5272314;28;20012;-83
2022/05/24 04:26:38;;;;;;;2.95;2.15;;;12.50;99.90;;;;;;5272283;28;20036;-89
2022/05/24 04:29:08;;;;;;;3.83;1.90;;;12.70;99.90;;;;;;5271975;28;20042;-88
2022/05/24 04:31:40;;;;;;;2.90;2.35;;;12.90;99.90;;;;;;5270894;28;20036;-81
2022/05/24 04:34:11;;;;;;;3.63;1.92;;;12.80;99.90;;;;;;5271974;28;20071;-88
2022/05/24 04:36:42;;;;;;;3.05;1.70;;;13.10;99.90;;;;;;5271971;28;20048;-79
2022/05/24 04:39:13;;;;;;;2.88;1.90;;;13.20;99.90;;;;;;5270605;28;20039;-86
2022/05/24 04:44:34;;;;;;;2.33;1.40;;;13.30;99.90;;;;;;5271925;28;20480;-79
2022/05/24 04:47:07;;;;;;;1.92;1.30;;;13.60;99.90;;;;;;5271888;28;20099;-88
2022/05/24 04:49:42;;;;;;;3.42;1.55;;;13.80;99.90;;;;;;5271772;28;20028;-88
2022/05/24 04:52:14;;;;;;;3.00;1.65;;;13.40;99.90;;;;;;5271561;28;20418;-87
2022/05/24 04:54:45;;;;;;;1.98;1.38;;;13.80;99.90;;;;;;5287367;28;20043;-79
2022/05/24 04:57:16;;;;;;;2.75;1.20;;;14.00;99.90;;;;;;5271727;28;20426;-89
2022/05/24 04:59:48;;;;;;;2.92;1.27;;;13.80;99.90;;;;;;5271643;28;20024;-88
2022/05/24 05:02:20;;;;;;;2.75;1.60;;;14.40;99.90;;;;;;5270303;28;20032;-89
2022/05/24 05:04:52;;;;;;;3.17;1.45;;;14.20;99.90;;;;;;5271577;28;20016;-82
2022/05/24 05:07:23;;;;;;;4.53;1.50;;;14.90;99.90;;;;;;5270775;28;20085;-78
2022/05/24 05:09:54;;;;;;;1.80;1.30;;;15.30;99.90;;;;;;5270919;28;20020;-80
2022/05/24 05:12:26;;;;;;;2.35;1.30;;;15.40;99.90;;;;;;5285758;28;20028;-80
2022/05/24 05:14:57;;;;;;;2.85;1.30;;;15.80;99.90;;;;;;5271204;28;20032;-82
2022/05/24 05:17:28;;;;;;;3.80;0.95;;;15.70;99.90;;;;;;5271599;28;20023;-82
2022/05/24 05:20:01;;;;;;;5.57;1.10;;;15.20;99.90;;;;;;5271269;28;20039;-79
2022/05/24 05:22:33;;;;;;;4.22;1.60;;;15.40;99.90;;;;;;5271387;28;20064;-82
2022/05/24 05:25:04;;;;;;;2.35;1.23;;;16.00;99.90;;;;;;5271135;28;20498;-82
2022/05/24 05:27:35;;;;;;;1.45;1.05;;;16.40;99.90;;;;;;5271171;28;20023;-80
2022/05/24 05:32:56;;;;;;;4.95;2.08;;;16.70;99.90;;;;;;5271088;28;20028;-81
2022/05/24 05:35:26;;;;;;;2.13;1.50;;;16.90;99.90;;;;;;5268868;28;20025;-80
2022/05/24 05:37:57;;;;;;;3.63;2.00;;;16.70;99.90;;;;;;5285100;28;20356;-79
2022/05/24 05:40:28;;;;;;;4.13;2.35;;;17.00;99.90;;;;;;5269942;28;20028;-83
2022/05/24 05:42:59;;;;;;;3.78;2.38;;;17.30;99.90;;;;;;5268921;28;20372;-84
2022/05/24 05:45:30;;;;;;;8.73;2.53;;;17.50;99.90;;;;;;5270233;28;20106;-84
2022/05/24 05:48:01;;;;;;;5.18;2.20;;;17.40;99.90;;;;;;5269860;28;20361;-84
2022/05/24 05:50:32;;;;;;;2.97;1.60;;;17.00;99.90;;;;;;5269992;28;20119;-83
2022/05/24 05:53:04;;;;;;;5.03;1.70;;;17.00;99.90;;;;;;5285598;28;20032;-83
2022/05/24 05:55:37;;;;;;;5.40;1.75;;;16.70;99.90;;;;;;5268703;28;20467;-84
2022/05/24 05:58:08;;;;;;;2.72;1.42;;;17.40;99.90;;;;;;5269898;28;20090;-84
2022/05/24 06:00:41;;;;;;;3.00;1.20;;;17.80;99.90;;;;;;5270036;28;20387;-83
2022/05/24 06:03:12;;;;;;;6.72;1.80;;;18.10;99.90;;;;;;5269802;28;20023;-79
2022/05/24 06:05:44;;;;;;;2.45;1.45;;;18.10;99.90;;;;;;5269962;28;20519;-84
2022/05/24 06:08:15;;;;;;;3.47;2.10;;;18.30;99.90;;;;;;5269730;28;20539;-79
2022/05/24 06:10:46;;;;;;;2.35;1.80;;;18.40;99.90;;;;;;5269825;28;20031;-80
2022/05/24 06:13:16;;;;;;;2.88;1.30;;;18.80;99.90;;;;;;5269686;28;20024;-85
2022/05/24 06:15:50;;;;;;;4.70;1.20;;;18.70;99.90;;;;;;5269604;28;20433;-84
2022/05/24 06:18:21;;;;;;;4.38;1.75;;;19.10;99.90;;;;;;5285330;28;20024;-83
2022/05/24 06:20:52;;;;;;;7.28;2.55;;;19.10;99.90;;;;;;5285289;28;20032;-85
2022/05/24 06:23:24;;;;;;;4.97;2.60;;;19.10;99.90;;;;;;5269074;28;20077;-86
2022/05/24 06:25:55;;;;;;;5.53;2.92;;;18.90;99.90;;;;;;5268339;28;20032;-79
2022/05/24 06:28:26;;;;;;;6.43;2.92;;;19.40;99.90;;;;;;5257504;28;20100;-80
2022/05/24 06:30:57;;;;;;;27.02;4.10;;;19.20;99.90;;;;;;5257617;28;20163;-89
2022/05/24 06:33:29;;;;;;;10.98;2.00;;;19.70;99.90;;;;;;5248717;28;20028;-80
2022/05/24 06:36:00;;;;;;;33.13;3.97;;;19.60;99.90;;;;;;5265833;28;20023;-80
2022/05/24 06:38:32;;;;;;;4.72;1.42;;;19.70;99.90;;;;;;5269665;28;20395;-79
2022/05/24 06:41:04;;;;;;;4.38;1.75;;;19.90;99.90;;;;;;5268437;28;20032;-80
2022/05/24 06:43:36;;;;;;;4.45;1.60;;;19.80;99.90;;;;;;5269601;28;20155;-84
2022/05/24 06:46:07;;;;;;;2.33;1.30;;;19.90;99.90;;;;;;5269509;28;20028;-80
2022/05/24 06:48:43;;;;;;;4.05;1.35;;;19.90;99.90;;;;;;5269663;28;20035;-84
2022/05/24 06:51:18;;;;;;;5.72;1.70;;;19.90;99.90;;;;;;5269674;28;20016;-80
2022/05/24 06:53:49;;;;;;;6.07;1.60;;;20.20;99.90;;;;;;5253490;28;20040;-80
2022/05/24 06:56:20;;;;;;;2.70;1.17;;;20.30;99.90;;;;;;5248578;28;20025;-86
2022/05/24 07:02:24;;;;;;;2.45;1.20;;;20.60;99.90;;;;;;5263276;28;20034;-85
2022/05/24 07:04:31;;;;;;;2.10;1.50;;;20.50;99.90;;;;;;5269560;28;20026;-80
2022/05/24 07:07:01;;;;;;;3.35;1.33;;;20.70;99.90;;;;;;5269845;28;20032;-85
2022/05/24 07:09:33;;;;;;;4.38;1.42;;;21.00;99.90;;;;;;5269280;28;20020;-81
2022/05/24 07:12:05;;;;;;;4.05;1.30;;;20.90;99.90;;;;;;5269351;28;20024;-80
2022/05/24 07:14:36;;;;;;;2.78;1.10;;;20.90;99.90;;;;;;5269190;28;20391;-80
2022/05/24 07:17:07;;;;;;;3.25;1.20;;;21.10;99.90;;;;;;5269334;28;20051;-81
2022/05/24 07:19:38;;;;;;;3.83;1.35;;;21.30;99.90;;;;;;5267911;28;20066;-88
2022/05/24 07:22:10;;;;;;;4.50;1.38;;;21.10;99.90;;;;;;5255713;28;20025;-89
2022/05/24 07:24:41;;;;;;;2.58;1.70;;;20.80;99.90;;;;;;5248337;28;20078;-80
2022/05/24 07:27:14;;;;;;;7.22;1.48;;;21.20;99.90;;;;;;5248320;28;20033;-80
2022/05/24 07:29:45;;;;;;;1.90;1.27;;;21.40;99.90;;;;;;5246908;28;20040;-79
2022/05/24 07:32:16;;;;;;;17.23;2.45;;;21.30;99.90;;;;;;5248532;28;20020;-79
2022/05/24 07:34:46;;;;;;;6.85;1.20;;;21.80;99.90;;;;;;5248134;28;20043;-79
2022/05/24 07:37:18;;;;;;;5.32;1.48;;;21.70;99.90;;;;;;5252381;28;20472;-79
2022/05/24 07:45:47;;;;;;;4.95;1.55;;;21.60;99.90;;;;;;5252321;28;20152;-79
2022/05/24 07:48:12;;;;;;;2.10;1.02;;;22.20;99.90;;;;;;5252109;28;20299;-88
2022/05/24 07:50:44;;;;;;;3.72;1.35;;;22.10;99.90;;;;;;5250755;28;20395;-80
2022/05/24 07:53:15;;;;;;;4.07;1.17;;;22.00;99.90;;;;;;5251917;28;20111;-80
2022/05/24 07:55:46;;;;;;;5.50;0.90;;;22.10;99.90;;;;;;5251809;28;20063;-85
2022/05/24 07:58:17;;;;;;;2.22;0.90;;;22.50;99.90;;;;;;5251778;28;20052;-85
2022/05/24 08:00:48;;;;;;;2.70;1.25;;;22.40;99.90;;;;;;5251876;28;20067;-85
2022/05/24 08:03:19;;;;;;;1.98;0.80;;;21.80;99.90;;;;;;5251749;28;20048;-86
2022/05/24 08:05:51;;;;;;;3.90;0.80;;;22.10;99.90;;;;;;5251758;28;20067;-79
2022/05/24 08:08:22;;;;;;;2.55;1.20;;;22.40;99.90;;;;;;5251849;28;20025;-82
2022/05/24 08:10:53;;;;;;;3.60;1.02;;;22.20;99.90;;;;;;5251624;28;20039;-81
2022/05/24 08:13:24;;;;;;;1.73;0.98;;;22.40;99.90;;;;;;5251785;28;20021;-81
2022/05/24 08:15:55;;;;;;;2.83;0.70;;;22.80;99.90;;;;;;5250939;28;20032;-83
2022/05/24 08:18:26;;;;;;;4.40;0.70;;;22.90;99.90;;;;;;5250752;28;20021;-87
2022/05/24 08:20:57;;;;;;;4.80;1.20;;;22.80;99.90;;;;;;5249676;28;20384;-74
2022/05/24 08:23:29;;;;;;;1.17;0.82;;;22.50;99.90;;;;;;5250670;28;20028;-85
2022/05/24 08:26:00;;;;;;;1.98;0.63;;;22.80;99.90;;;;;;5249461;28;20035;-87
2022/05/24 08:28:31;;;;;;;2.40;1.08;;;22.50;99.90;;;;;;5250576;28;20024;-85
2022/05/24 08:31:01;;;;;;;4.55;0.70;;;22.70;99.90;;;;;;5250420;28;20068;-79
2022/05/24 08:33:32;;;;;;;1.85;0.60;;;22.80;99.90;;;;;;5249303;28;20123;-80
2022/05/24 08:36:04;;;;;;;1.88;0.70;;;23.00;99.90;;;;;;5250620;28;20024;-83
2022/05/24 08:38:34;;;;;;;2.83;0.73;;;22.80;99.90;;;;;;5250267;28;20031;-85
2022/05/24 08:41:13;;;;;;;2.25;0.70;;;23.00;99.90;;;;;;5250379;28;20021;-85
2022/05/24 08:43:58;;;;;;;1.83;0.65;;;23.10;99.90;;;;;;5250217;28;20025;-86
2022/05/24 08:49:27;;;;;;;3.42;1.10;;;22.90;99.90;;;;;;5250256;28;20058;-87
2022/05/24 08:52:04;;;;;;;4.82;0.65;;;23.00;99.90;;;;;;5250098;28;20468;-81
2022/05/24 08:54:43;;;;;;;2.45;0.80;;;23.00;99.90;;;;;;5249975;28;20033;-78
2022/05/24 08:57:22;;;;;;;1.65;0.80;;;23.10;99.90;;;;;;5250121;28;20036;-86
2022/05/24 09:00:06;;;;;;;2.47;0.70;;;22.90;99.90;;;;;;5250051;28;20032;-82
2022/05/24 09:02:43;;;;;;;3.92;1.00;;;23.20;99.90;;;;;;5250082;28;20024;-87
2022/05/24 09:05:29;;;;;;;1.63;0.90;;;23.20;99.90;;;;;;5248836;28;20033;-86
2022/05/24 09:08:21;;;;;;;2.08;0.82;;;23.20;99.90;;;;;;5248693;28;20023;-77
2022/05/24 09:11:25;;;;;;;2.08;0.90;;;23.00;99.90;;;;;;5248743;28;20050;-86
2022/05/24 09:13:58;;;;;;;1.50;0.80;;;23.00;99.90;;;;;;5248896;28;20055;-78
2022/05/24 09:16:41;;;;;;;3.45;1.20;;;22.70;99.90;;;;;;5250392;28;20021;-77
2022/05/24 09:19:39;;;;;;;4.28;0.70;;;23.00;99.90;;;;;;5250398;28;20075;-77
2022/05/24 09:22:11;;;;;;;3.08;1.00;;;23.00;99.90;;;;;;5249265;28;20024;-87
2022/05/24 09:24:49;;;;;;;2.47;0.73;;;23.20;99.90;;;;;;5250128;28;20101;-90
2022/05/24 09:27:23;;;;;;;2.22;0.80;;;23.40;99.90;;;;;;5250465;28;20360;-90
2022/05/24 09:30:08;;;;;;;1.50;0.80;;;23.50;99.90;;;;;;5250114;28;20582;-85
2022/05/24 09:32:42;;;;;;;2.65;0.88;;;23.50;99.90;;;;;;5248689;28;20024;-87
2022/05/24 09:35:16;;;;;;;3.30;1.00;;;23.10;99.90;;;;;;5250051;28;20039;-83
2022/05/24 09:38:03;;;;;;;4.22;1.08;;;23.60;99.90;;;;;;5248752;28;20021;-87
2022/05/24 09:40:51;;;;;;;3.00;0.80;;;23.70;99.90;;;;;;5249789;28;20029;-86
2022/05/24 09:43:26;;;;;;;3.85;0.90;;;23.50;99.90;;;;;;5250133;28;20529;-77
2022/05/24 09:46:21;;;;;;;18.73;1.92;;;23.50;99.90;;;;;;5249452;28;20046;-78
2022/05/24 09:49:18;;;;;;;3.03;0.90;;;24.10;99.90;;;;;;5249758;28;20381;-81
2022/05/24 09:51:54;;;;;;;2.50;1.17;;;23.50;99.90;;;;;;5249605;28;20021;-77
2022/05/24 09:54:28;;;;;;;3.15;0.85;;;23.70;99.90;;;;;;5249479;28;20384;-90
2022/05/24 09:57:13;;;;;;;4.10;0.90;;;23.50;99.90;;;;;;5249299;28;20025;-76
2022/05/24 10:00:14;;;;;;;2.30;0.98;;;23.60;99.90;;;;;;5249237;28;20024;-76
2022/05/24 10:02:44;;;;;;;2.45;0.73;;;23.80;99.90;;;;;;5249476;28;20379;-90
2022/05/24 10:05:27;;;;;;;4.07;0.80;;;23.80;99.90;;;;;;5249215;28;20016;-76
2022/05/24 10:08:01;;;;;;;1.40;0.60;;;23.50;99.90;;;;;;5249501;28;20031;-89
2022/05/24 10:10:39;;;;;;;3.75;0.60;;;23.70;99.90;;;;;;5249167;28;20027;-76
2022/05/24 10:13:30;;;;;;;2.08;0.70;;;23.20;99.90;;;;;;5249128;28;20025;-76
2022/05/24 10:16:13;;;;;;;4.70;0.80;;;23.50;99.90;;;;;;5248398;28;20027;-76
2022/05/24 10:19:21;;;;;;;1.23;0.88;;;23.30;99.90;;;;;;5249066;28;20423;-77
2022/05/24 10:22:16;;;;;;;1.73;0.80;;;23.80;99.90;;;;;;5248778;28;20479;-77
2022/05/24 10:24:58;;;;;;;3.13;0.68;;;23.80;99.90;;;;;;5249106;28;20464;-76
2022/05/24 10:27:42;;;;;;;1.52;0.68;;;23.90;99.90;;;;;;5248819;28;20052;-90
2022/05/24 10:30:23;;;;;;;3.78;1.02;;;23.60;99.90;;;;;;5248672;28;20056;-91
2022/05/24 10:39:45;;;;;;;2.20;0.63;;;23.50;99.90;;;;;;5248296;28;20104;-86
2022/05/24 10:42:55;;;;;;;3.50;0.70;;;24.00;99.90;;;;;;5247944;28;20480;-77
2022/05/24 10:45:50;;;;;;;1.92;0.50;;;24.10;99.90;;;;;;5247682;28;20395;-78
2022/05/24 10:48:25;;;;;;;2.90;0.60;;;24.00;99.90;;;;;;5248043;28;20518;-83
2022/05/24 10:51:24;;;;;;;0.95;0.60;;;24.20;99.90;;;;;;5247123;28;20036;-86
2022/05/24 10:54:07;;;;;;;2.55;0.68;;;23.80;99.90;;;;;;5258494;28;20396;-80
2022/05/24 10:56:48;;;;;;;3.60;0.93;;;23.80;99.90;;;;;;5248480;28;20023;-76
2022/05/24 10:59:44;;;;;;;2.30;0.80;;;24.10;99.90;;;;;;5248153;28;20090;-76
2022/05/24 11:02:44;;;;;;;2.30;0.70;;;24.50;99.90;;;;;;5247128;28;20082;-77
2022/05/24 11:05:33;;;;;;;3.30;0.70;;;24.00;99.90;;;;;;5248435;28;20028;-76
2022/05/24 11:08:27;;;;;;;3.95;0.90;;;24.30;99.90;;;;;;5248210;28;20024;-83
2022/05/24 11:11:04;;;;;;;1.92;0.70;;;24.60;99.90;;;;;;5248123;28;20036;-86
2022/05/24 11:13:49;;;;;;;2.35;0.70;;;24.20;99.90;;;;;;5254671;28;20032;-82
2022/05/24 11:16:26;;;;;;;2.92;0.52;;;23.80;99.90;;;;;;5254261;28;20021;-88
2022/05/24 11:18:57;;;;;;;3.40;0.85;;;24.50;99.90;;;;;;5248419;28;20040;-88
2022/05/24 11:21:37;;;;;;;2.08;0.68;;;24.70;99.90;;;;;;5247213;28;20078;-87
2022/05/24 11:24:27;;;;;;;0.98;0.75;;;24.50;99.90;;;;;;5265586;28;20130;-81
2022/05/24 11:27:01;;;;;;;6.07;0.80;;;24.30;99.90;;;;;;5268868;28;20024;-81
2022/05/24 11:29:48;;;;;;;1.50;0.43;;;24.60;99.90;;;;;;5268584;28;20483;-89
2022/05/24 11:32:39;;;;;;;0.75;0.57;;;24.50;99.90;;;;;;5268921;28;20028;-77
2022/05/24 11:35:18;;;;;;;0.93;0.40;;;24.20;99.90;;;;;;5268987;28;20483;-87
2022/05/24 11:37:55;;;;;;;0.85;0.43;;;24.30;99.90;;;;;;5267611;28;20024;-78
2022/05/24 11:40:34;;;;;;;3.60;0.75;;;24.10;99.90;;;;;;5268971;28;20036;-87
2022/05/24 11:43:08;;;;;;;0.80;0.43;;;23.90;99.90;;;;;;5268861;28;20031;-84
2022/05/24 11:46:02;;;;;;;1.33;0.70;;;24.50;99.90;;;;;;5268311;28;20543;-78
2022/05/24 11:48:45;;;;;;;2.60;0.60;;;24.60;99.90;;;;;;5267929;28;20031;-84
2022/05/24 11:51:32;;;;;;;3.47;0.80;;;24.00;99.90;;;;;;5247778;28;20025;-81
2022/05/24 11:54:21;;;;;;;2.50;0.68;;;24.70;99.90;;;;;;5247973;28;20552;-87
2022/05/24 11:57:01;;;;;;;1.63;0.60;;;24.60;99.90;;;;;;5247745;28;20067;-88
2022/05/24 11:59:40;;;;;;;1.95;0.55;;;24.60;99.90;;;;;;5252668;28;20028;-76
2022/05/24 12:02:33;;;;;;;;;;;24.90;99.90;;;;;;5268900;28;20024;-86
2022/05/24 12:08:39;;;;;;;3.50;0.75;;;24.50;99.30;;;;;;5266529;28;20018;-85
2022/05/24 12:11:16;;;;;;;2.85;0.70;;;24.20;97.50;;;;;;5268269;28;20040;-85
2022/05/24 12:13:48;;;;;;;2.03;0.32;;;23.90;97.00;;;;;;5268422;28;20036;-79
2022/05/24 12:16:36;;;;;;;2.00;0.60;;;24.50;99.80;;;;;;5268547;28;20034;-75
2022/05/24 12:19:11;;;;;;;3.53;0.88;;;24.70;99.90;;;;;;5268500;28;20024;-88
2022/05/24 12:21:55;;;;;;;3.97;0.68;;;24.30;99.90;;;;;;5269870;28;20046;-77
2022/05/24 12:24:29;;;;;;;4.10;0.70;;;24.10;99.90;;;;;;5272074;28;20082;-81
2022/05/24 12:27:33;;;;;;;1.80;0.60;;;24.50;99.90;;;;;;5258712;28;20353;-86
2022/05/24 12:30:20;;;;;;;2.55;0.85;;;23.60;99.90;;;;;;5250811;28;20052;-76
2022/05/24 12:32:53;;;;;;;0.80;0.57;;;24.50;99.90;;;;;;5250515;28;20016;-76
2022/05/24 12:35:24;;;;;;;2.30;0.70;;;24.10;99.90;;;;;;5250023;28;20040;-76
2022/05/24 12:37:56;;;;;;;4.38;0.60;;;24.70;99.90;;;;;;5249816;28;20369;-85
2022/05/24 12:40:30;;;;;;;4.20;0.60;;;25.00;99.90;;;;;;5250641;28;20039;-76
2022/05/24 12:43:07;;;;;;;2.58;1.17;;;24.50;99.20;;;;;;5250444;28;20013;-76
2022/05/24 12:45:41;;;;;;;1.55;0.70;;;24.30;99.90;;;;;;5250596;28;20059;-85
2022/05/24 12:48:11;;;;;;;3.75;0.85;;;24.60;99.90;;;;;;5250434;28;20029;-76
2022/05/24 12:50:42;;;;;;;2.40;0.70;;;24.70;99.90;;;;;;5250548;28;20357;-76
2022/05/24 12:53:20;;;;;;;2.00;0.70;;;24.60;99.90;;;;;;5250491;28;20170;-84
2022/05/24 12:56:03;;;;;;;3.75;0.80;;;24.70;99.90;;;;;;5250412;28;20107;-76
2022/05/24 12:58:52;;;;;;;2.35;0.70;;;24.10;99.90;;;;;;5250233;28;20094;-84
2022/05/24 13:01:31;;;;;;;3.15;0.70;;;24.30;99.90;;;;;;5250400;28;20380;-83
2022/05/24 13:04:06;;;;;;;1.38;0.60;;;24.30;99.90;;;;;;5250115;28;20380;-77
2022/05/24 13:06:39;;;;;;;1.08;0.50;;;24.40;99.90;;;;;;5250173;28;20051;-76
2022/05/24 13:09:28;;;;;;;0.82;0.40;;;24.40;99.30;;;;;;5250258;28;20483;-85
2022/05/24 13:12:00;;;;;;;1.95;0.50;;;24.50;99.90;;;;;;5249024;28;20032;-76
2022/05/24 13:14:47;;;;;;;1.17;0.60;;;24.10;99.90;;;;;;5249844;28;20036;-76
2022/05/24 13:17:20;;;;;;;1.85;0.55;;;24.10;99.90;;;;;;5250031;28;20051;-85
2022/05/24 13:20:06;;;;;;;3.03;0.70;;;24.30;99.90;;;;;;5249994;28;20090;-86
2022/05/24 13:22:50;;;;;;;2.10;0.60;;;24.20;99.90;;;;;;5249846;28;20082;-76
2022/05/24 13:25:28;;;;;;;1.48;0.60;;;24.60;99.90;;;;;;5249897;28;20029;-76
2022/05/24 13:28:04;;;;;;;4.60;0.73;;;24.20;99.90;;;;;;5249643;28;20050;-76
2022/05/24 13:33:47;;;;;;;2.95;0.40;;;24.30;99.90;;;;;;5248721;28;20491;-76
2022/05/24 13:36:20;;;;;;;3.20;0.60;;;23.80;99.90;;;;;;5249588;28;20028;-76
2022/05/24 13:39:03;;;;;;;2.38;0.43;;;24.10;99.90;;;;;;5249414;28;20060;-85
2022/05/24 13:41:38;;;;;;;0.75;0.40;;;23.80;99.90;;;;;;5249485;28;20099;-76
2022/05/24 13:44:34;;;;;;;1.85;0.60;;;24.10;95.70;;;;;;5248013;28;20074;-76
2022/05/24 13:47:09;;;;;;;2.78;0.40;;;24.10;99.90;;;;;;5249409;28;20024;-76
2022/05/24 13:49:48;;;;;;;0.77;0.47;;;23.70;90.70;;;;;;5249278;28;20025;-76
2022/05/24 13:52:31;;;;;;;1.37;0.40;;;24.30;95.80;;;;;;5249410;28;20461;-75
2022/05/24 13:55:08;;;;;;;2.35;0.55;;;24.70;99.90;;;;;;5249091;28;20298;-76
2022/05/24 13:58:00;;;;;;;1.92;0.45;;;24.00;99.90;;;;;;5249002;28;20021;-76
2022/05/24 14:00:41;;;;;;;1.90;0.52;;;24.40;94.30;;;;;;5249140;28;20031;-77
2022/05/24 14:03:28;;;;;;;1.33;0.77;;;24.60;95.30;;;;;;5247550;28;20530;-76
2022/05/24 14:06:12;;;;;;;0.90;0.40;;;24.60;94.40;;;;;;5248958;28;20106;-76
2022/05/24 14:08:44;;;;;;;2.65;0.60;;;24.10;93.10;;;;;;5247644;28;20036;-86
2022/05/24 14:11:18;;;;;;;0.95;0.43;;;23.70;96.10;;;;;;5248867;28;20066;-79
2022/05/24 14:13:51;;;;;;;1.98;0.68;;;24.30;97.30;;;;;;5248588;28;20097;-86
2022/05/24 14:16:22;;;;;;;1.52;0.50;;;23.40;97.40;;;;;;5248707;28;20126;-79